sensor_id;sensor_type;location;lat;lon;timestamp;P1;durP1;ratioP1;P2;durP2;ratioP2
42094;SDS011;27753;55.724;37.612;2022-10-12T00:01:27;34.97;;;20.70;;
42094;SDS011;27753;55.724;37.612;2022-10-12T00:03:53;41.65;;;23.45;;
42094;SDS011;27753;55.724;37.612;2022-10-12T00:06:20;44.35;;;23.40;;
42094;SDS011;27753;55.724;37.612;2022-10-12T00:08:48;40.33;;;25.33;;
42094;SDS011;27753;55.724;37.612;2022-10-12T00:11:22;39.40;;;23.42;;
42094;SDS011;27753;55.724;37.612;2022-10-12T00:13:48;48.28;;;24.88;;
42094;SDS011;27753;55.724;37.612;2022-10-12T00:16:16;39.88;;;24.55;;
42094;SDS011;27753;55.724;37.612;2022-10-12T00:18:42;37.20;;;22.48;;
42094;SDS011;27753;55.724;37.612;2022-10-12T00:21:09;36.30;;;21.88;;
42094;SDS011;27753;55.724;37.612;2022-10-12T00:23:36;38.83;;;23.15;;
42094;SDS011;27753;55.724;37.612;2022-10-12T00:26:03;36.13;;;22.95;;
42094;SDS011;27753;55.724;37.612;2022-10-12T00:28:30;36.80;;;21.23;;
42094;SDS011;27753;55.724;37.612;2022-10-12T00:30:56;41.55;;;20.45;;
42094;SDS011;27753;55.724;37.612;2022-10-12T00:33:22;38.92;;;22.85;;
42094;SDS011;27753;55.724;37.612;2022-10-12T00:35:49;28.73;;;19.35;;
42094;SDS011;27753;55.724;37.612;2022-10-12T00:38:17;35.30;;;20.50;;
42094;SDS011;27753;55.724;37.612;2022-10-12T00:40:43;36.55;;;19.17;;
42094;SDS011;27753;55.724;37.612;2022-10-12T00:43:28;35.95;;;20.02;;
42094;SDS011;27753;55.724;37.612;2022-10-12T00:45:55;27.20;;;16.73;;
42094;SDS011;27753;55.724;37.612;2022-10-12T00:48:22;31.55;;;18.45;;
42094;SDS011;27753;55.724;37.612;2022-10-12T00:50:48;36.00;;;18.23;;
42094;SDS011;27753;55.724;37.612;2022-10-12T00:53:15;34.95;;;18.67;;
42094;SDS011;27753;55.724;37.612;2022-10-12T00:58:08;33.47;;;18.85;;
42094;SDS011;27753;55.724;37.612;2022-10-12T01:00:35;31.40;;;18.67;;
42094;SDS011;27753;55.724;37.612;2022-10-12T01:03:02;39.75;;;20.48;;
42094;SDS011;27753;55.724;37.612;2022-10-12T01:05:30;32.78;;;20.73;;
42094;SDS011;27753;55.724;37.612;2022-10-12T01:07:56;31.15;;;18.55;;
42094;SDS011;27753;55.724;37.612;2022-10-12T01:10:24;28.33;;;19.20;;
42094;SDS011;27753;55.724;37.612;2022-10-12T01:12:50;29.30;;;20.58;;
42094;SDS011;27753;55.724;37.612;2022-10-12T01:15:17;36.35;;;20.23;;
42094;SDS011;27753;55.724;37.612;2022-10-12T01:17:52;30.17;;;20.25;;
42094;SDS011;27753;55.724;37.612;2022-10-12T01:28:17;38.50;;;21.40;;
42094;SDS011;27753;55.724;37.612;2022-10-12T01:30:50;31.85;;;20.15;;
42094;SDS011;27753;55.724;37.612;2022-10-12T01:41:01;31.00;;;20.23;;
42094;SDS011;27753;55.724;37.612;2022-10-12T01:43:37;32.60;;;19.50;;
42094;SDS011;27753;55.724;37.612;2022-10-12T01:48:50;29.65;;;18.90;;
42094;SDS011;27753;55.724;37.612;2022-10-12T01:51:18;32.65;;;19.65;;
42094;SDS011;27753;55.724;37.612;2022-10-12T01:53:49;29.77;;;19.50;;
42094;SDS011;27753;55.724;37.612;2022-10-12T01:58:56;37.85;;;19.63;;
42094;SDS011;27753;55.724;37.612;2022-10-12T02:04:10;32.15;;;19.13;;
42094;SDS011;27753;55.724;37.612;2022-10-12T02:06:42;30.02;;;19.77;;
42094;SDS011;27753;55.724;37.612;2022-10-12T02:09:11;37.10;;;20.65;;
42094;SDS011;27753;55.724;37.612;2022-10-12T02:11:39;35.58;;;19.33;;
42094;SDS011;27753;55.724;37.612;2022-10-12T02:14:08;34.30;;;19.73;;
42094;SDS011;27753;55.724;37.612;2022-10-12T02:16:40;39.08;;;19.00;;
42094;SDS011;27753;55.724;37.612;2022-10-12T02:19:08;36.40;;;21.70;;
42094;SDS011;27753;55.724;37.612;2022-10-12T02:21:35;34.60;;;22.15;;
42094;SDS011;27753;55.724;37.612;2022-10-12T02:24:03;38.28;;;24.15;;
42094;SDS011;27753;55.724;37.612;2022-10-12T02:26:31;38.08;;;22.50;;
42094;SDS011;27753;55.724;37.612;2022-10-12T02:28:59;35.20;;;22.50;;
42094;SDS011;27753;55.724;37.612;2022-10-12T02:34:03;34.97;;;21.50;;
42094;SDS011;27753;55.724;37.612;2022-10-12T02:36:36;34.42;;;20.30;;
42094;SDS011;27753;55.724;37.612;2022-10-12T02:39:06;35.83;;;20.67;;
42094;SDS011;27753;55.724;37.612;2022-10-12T02:41:35;31.98;;;19.30;;
42094;SDS011;27753;55.724;37.612;2022-10-12T02:44:04;30.45;;;18.83;;
42094;SDS011;27753;55.724;37.612;2022-10-12T02:46:32;31.52;;;18.80;;
42094;SDS011;27753;55.724;37.612;2022-10-12T02:48:59;42.17;;;20.77;;
42094;SDS011;27753;55.724;37.612;2022-10-12T02:51:27;32.47;;;20.73;;
42094;SDS011;27753;55.724;37.612;2022-10-12T02:53:53;31.17;;;18.85;;
42094;SDS011;27753;55.724;37.612;2022-10-12T02:56:20;26.83;;;19.85;;
42094;SDS011;27753;55.724;37.612;2022-10-12T02:58:47;28.05;;;17.90;;
42094;SDS011;27753;55.724;37.612;2022-10-12T03:01:13;25.02;;;18.55;;
42094;SDS011;27753;55.724;37.612;2022-10-12T03:03:43;38.63;;;19.00;;
42094;SDS011;27753;55.724;37.612;2022-10-12T03:06:10;28.65;;;17.17;;
42094;SDS011;27753;55.724;37.612;2022-10-12T03:08:36;28.45;;;17.05;;
42094;SDS011;27753;55.724;37.612;2022-10-12T03:11:06;29.90;;;17.55;;
42094;SDS011;27753;55.724;37.612;2022-10-12T03:13:32;28.80;;;17.58;;
42094;SDS011;27753;55.724;37.612;2022-10-12T03:16:03;26.75;;;17.25;;
42094;SDS011;27753;55.724;37.612;2022-10-12T03:18:29;35.50;;;16.58;;
42094;SDS011;27753;55.724;37.612;2022-10-12T03:20:56;29.83;;;16.75;;
42094;SDS011;27753;55.724;37.612;2022-10-12T03:23:22;23.92;;;16.35;;
42094;SDS011;27753;55.724;37.612;2022-10-12T03:25:48;22.08;;;16.42;;
42094;SDS011;27753;55.724;37.612;2022-10-12T03:28:14;27.60;;;16.08;;
42094;SDS011;27753;55.724;37.612;2022-10-12T03:30:41;19.75;;;15.32;;
42094;SDS011;27753;55.724;37.612;2022-10-12T03:33:07;31.33;;;15.35;;
42094;SDS011;27753;55.724;37.612;2022-10-12T03:35:33;23.15;;;14.43;;
42094;SDS011;27753;55.724;37.612;2022-10-12T03:37:59;20.15;;;14.82;;
42094;SDS011;27753;55.724;37.612;2022-10-12T03:40:26;26.23;;;14.98;;
42094;SDS011;27753;55.724;37.612;2022-10-12T03:42:52;27.13;;;14.73;;
42094;SDS011;27753;55.724;37.612;2022-10-12T03:45:18;25.35;;;14.93;;
42094;SDS011;27753;55.724;37.612;2022-10-12T03:47:44;24.13;;;14.10;;
42094;SDS011;27753;55.724;37.612;2022-10-12T03:50:10;25.83;;;15.35;;
42094;SDS011;27753;55.724;37.612;2022-10-12T03:52:36;31.05;;;15.68;;
42094;SDS011;27753;55.724;37.612;2022-10-12T03:55:02;22.55;;;13.98;;
42094;SDS011;27753;55.724;37.612;2022-10-12T03:57:29;27.77;;;17.10;;
42094;SDS011;27753;55.724;37.612;2022-10-12T03:59:55;28.67;;;16.42;;
42094;SDS011;27753;55.724;37.612;2022-10-12T04:02:21;26.70;;;16.35;;
42094;SDS011;27753;55.724;37.612;2022-10-12T04:04:47;34.80;;;14.32;;
42094;SDS011;27753;55.724;37.612;2022-10-12T04:07:13;30.77;;;16.25;;
42094;SDS011;27753;55.724;37.612;2022-10-12T04:09:39;29.63;;;15.32;;
42094;SDS011;27753;55.724;37.612;2022-10-12T04:12:05;21.92;;;14.25;;
42094;SDS011;27753;55.724;37.612;2022-10-12T04:14:31;24.83;;;17.02;;
42094;SDS011;27753;55.724;37.612;2022-10-12T04:16:58;25.73;;;15.38;;
42094;SDS011;27753;55.724;37.612;2022-10-12T04:19:24;23.33;;;14.27;;
42094;SDS011;27753;55.724;37.612;2022-10-12T04:21:50;27.83;;;15.02;;
42094;SDS011;27753;55.724;37.612;2022-10-12T04:24:16;26.52;;;14.30;;
42094;SDS011;27753;55.724;37.612;2022-10-12T04:26:42;27.00;;;16.48;;
42094;SDS011;27753;55.724;37.612;2022-10-12T04:29:10;27.77;;;15.55;;
42094;SDS011;27753;55.724;37.612;2022-10-12T04:31:36;24.40;;;14.02;;
42094;SDS011;27753;55.724;37.612;2022-10-12T04:34:02;21.85;;;15.45;;
42094;SDS011;27753;55.724;37.612;2022-10-12T04:36:29;32.70;;;15.27;;
42094;SDS011;27753;55.724;37.612;2022-10-12T04:38:55;26.63;;;15.23;;
42094;SDS011;27753;55.724;37.612;2022-10-12T04:41:21;23.33;;;14.25;;
42094;SDS011;27753;55.724;37.612;2022-10-12T04:43:47;24.70;;;13.70;;
42094;SDS011;27753;55.724;37.612;2022-10-12T04:46:13;21.27;;;13.88;;
42094;SDS011;27753;55.724;37.612;2022-10-12T04:48:39;28.67;;;16.80;;
42094;SDS011;27753;55.724;37.612;2022-10-12T04:51:05;27.35;;;15.20;;
42094;SDS011;27753;55.724;37.612;2022-10-12T04:53:32;26.15;;;15.27;;
42094;SDS011;27753;55.724;37.612;2022-10-12T04:56:00;24.23;;;14.65;;
42094;SDS011;27753;55.724;37.612;2022-10-12T04:58:26;22.05;;;14.20;;
42094;SDS011;27753;55.724;37.612;2022-10-12T05:00:52;22.83;;;13.38;;
42094;SDS011;27753;55.724;37.612;2022-10-12T05:03:19;25.20;;;14.48;;
42094;SDS011;27753;55.724;37.612;2022-10-12T05:05:45;22.00;;;14.20;;
42094;SDS011;27753;55.724;37.612;2022-10-12T05:08:11;21.38;;;12.38;;
42094;SDS011;27753;55.724;37.612;2022-10-12T05:10:38;24.67;;;13.05;;
42094;SDS011;27753;55.724;37.612;2022-10-12T05:13:04;18.52;;;11.65;;
42094;SDS011;27753;55.724;37.612;2022-10-12T05:15:30;22.25;;;13.13;;
42094;SDS011;27753;55.724;37.612;2022-10-12T05:17:56;16.58;;;12.80;;
42094;SDS011;27753;55.724;37.612;2022-10-12T05:20:22;22.27;;;11.57;;
42094;SDS011;27753;55.724;37.612;2022-10-12T05:22:48;21.85;;;13.55;;
42094;SDS011;27753;55.724;37.612;2022-10-12T05:25:15;22.52;;;13.35;;
42094;SDS011;27753;55.724;37.612;2022-10-12T05:27:41;18.30;;;12.95;;
42094;SDS011;27753;55.724;37.612;2022-10-12T05:30:07;17.40;;;12.32;;
42094;SDS011;27753;55.724;37.612;2022-10-12T05:32:33;25.45;;;11.40;;
42094;SDS011;27753;55.724;37.612;2022-10-12T05:34:59;16.50;;;10.15;;
42094;SDS011;27753;55.724;37.612;2022-10-12T05:37:26;16.13;;;9.80;;
42094;SDS011;27753;55.724;37.612;2022-10-12T05:39:52;17.35;;;9.63;;
42094;SDS011;27753;55.724;37.612;2022-10-12T05:42:18;18.90;;;9.95;;
42094;SDS011;27753;55.724;37.612;2022-10-12T05:44:44;13.60;;;9.20;;
42094;SDS011;27753;55.724;37.612;2022-10-12T05:47:11;16.42;;;9.60;;
42094;SDS011;27753;55.724;37.612;2022-10-12T05:49:37;23.13;;;11.15;;
42094;SDS011;27753;55.724;37.612;2022-10-12T05:52:03;14.32;;;8.48;;
42094;SDS011;27753;55.724;37.612;2022-10-12T05:54:29;17.27;;;9.52;;
42094;SDS011;27753;55.724;37.612;2022-10-12T05:56:55;14.45;;;8.25;;
42094;SDS011;27753;55.724;37.612;2022-10-12T05:59:21;17.10;;;8.23;;
42094;SDS011;27753;55.724;37.612;2022-10-12T06:01:47;12.98;;;7.88;;
42094;SDS011;27753;55.724;37.612;2022-10-12T06:04:14;20.88;;;8.18;;
42094;SDS011;27753;55.724;37.612;2022-10-12T06:06:40;11.48;;;8.02;;
42094;SDS011;27753;55.724;37.612;2022-10-12T06:09:06;14.40;;;6.53;;
42094;SDS011;27753;55.724;37.612;2022-10-12T06:11:32;11.35;;;6.68;;
42094;SDS011;27753;55.724;37.612;2022-10-12T06:13:58;15.15;;;8.55;;
42094;SDS011;27753;55.724;37.612;2022-10-12T06:16:24;13.18;;;7.68;;
42094;SDS011;27753;55.724;37.612;2022-10-12T06:18:50;18.95;;;8.85;;
42094;SDS011;27753;55.724;37.612;2022-10-12T06:21:16;14.98;;;8.57;;
42094;SDS011;27753;55.724;37.612;2022-10-12T06:23:43;18.52;;;8.95;;
42094;SDS011;27753;55.724;37.612;2022-10-12T06:26:09;16.23;;;8.32;;
42094;SDS011;27753;55.724;37.612;2022-10-12T06:28:35;16.95;;;8.55;;
42094;SDS011;27753;55.724;37.612;2022-10-12T06:31:01;14.23;;;8.93;;
42094;SDS011;27753;55.724;37.612;2022-10-12T06:33:27;17.70;;;7.95;;
42094;SDS011;27753;55.724;37.612;2022-10-12T06:35:54;20.42;;;8.70;;
42094;SDS011;27753;55.724;37.612;2022-10-12T06:38:20;11.48;;;7.38;;
42094;SDS011;27753;55.724;37.612;2022-10-12T06:40:46;17.52;;;9.35;;
42094;SDS011;27753;55.724;37.612;2022-10-12T06:43:13;17.70;;;11.32;;
42094;SDS011;27753;55.724;37.612;2022-10-12T06:45:39;18.88;;;11.30;;
42094;SDS011;27753;55.724;37.612;2022-10-12T06:48:05;15.63;;;9.88;;
42094;SDS011;27753;55.724;37.612;2022-10-12T06:50:32;18.43;;;11.37;;
42094;SDS011;27753;55.724;37.612;2022-10-12T06:52:58;18.08;;;11.07;;
42094;SDS011;27753;55.724;37.612;2022-10-12T06:55:24;16.48;;;9.52;;
42094;SDS011;27753;55.724;37.612;2022-10-12T06:57:50;18.50;;;11.38;;
42094;SDS011;27753;55.724;37.612;2022-10-12T07:00:16;17.25;;;11.02;;
42094;SDS011;27753;55.724;37.612;2022-10-12T07:02:42;19.70;;;12.02;;
42094;SDS011;27753;55.724;37.612;2022-10-12T07:05:09;24.10;;;12.10;;
42094;SDS011;27753;55.724;37.612;2022-10-12T07:07:35;22.52;;;12.60;;
42094;SDS011;27753;55.724;37.612;2022-10-12T07:10:02;21.27;;;12.27;;
42094;SDS011;27753;55.724;37.612;2022-10-12T07:12:29;20.27;;;11.73;;
42094;SDS011;27753;55.724;37.612;2022-10-12T07:14:55;20.98;;;11.98;;
42094;SDS011;27753;55.724;37.612;2022-10-12T07:17:23;23.77;;;9.57;;
42094;SDS011;27753;55.724;37.612;2022-10-12T07:19:49;18.02;;;8.18;;
42094;SDS011;27753;55.724;37.612;2022-10-12T07:22:15;20.85;;;7.65;;
42094;SDS011;27753;55.724;37.612;2022-10-12T07:24:41;9.68;;;7.20;;
42094;SDS011;27753;55.724;37.612;2022-10-12T07:27:08;13.73;;;7.70;;
42094;SDS011;27753;55.724;37.612;2022-10-12T07:29:35;13.70;;;7.32;;
42094;SDS011;27753;55.724;37.612;2022-10-12T07:32:01;18.05;;;7.65;;
42094;SDS011;27753;55.724;37.612;2022-10-12T07:34:28;11.50;;;8.30;;
42094;SDS011;27753;55.724;37.612;2022-10-12T07:36:54;12.35;;;7.07;;
42094;SDS011;27753;55.724;37.612;2022-10-12T07:39:20;17.33;;;7.10;;
42094;SDS011;27753;55.724;37.612;2022-10-12T07:41:50;14.57;;;7.50;;
42094;SDS011;27753;55.724;37.612;2022-10-12T07:44:16;12.82;;;7.75;;
42094;SDS011;27753;55.724;37.612;2022-10-12T07:46:43;13.27;;;7.10;;
42094;SDS011;27753;55.724;37.612;2022-10-12T07:49:10;11.35;;;7.60;;
42094;SDS011;27753;55.724;37.612;2022-10-12T07:51:37;15.48;;;7.43;;
42094;SDS011;27753;55.724;37.612;2022-10-12T07:54:03;12.20;;;7.10;;
42094;SDS011;27753;55.724;37.612;2022-10-12T07:56:29;16.65;;;7.95;;
42094;SDS011;27753;55.724;37.612;2022-10-12T07:58:56;17.15;;;7.40;;
42094;SDS011;27753;55.724;37.612;2022-10-12T08:01:23;14.00;;;7.03;;
42094;SDS011;27753;55.724;37.612;2022-10-12T08:03:50;12.88;;;6.40;;
42094;SDS011;27753;55.724;37.612;2022-10-12T08:06:21;21.37;;;7.73;;
42094;SDS011;27753;55.724;37.612;2022-10-12T08:08:48;16.88;;;7.90;;
42094;SDS011;27753;55.724;37.612;2022-10-12T08:11:14;21.58;;;7.88;;
42094;SDS011;27753;55.724;37.612;2022-10-12T08:13:41;14.80;;;6.43;;
42094;SDS011;27753;55.724;37.612;2022-10-12T08:16:09;13.18;;;7.50;;
42094;SDS011;27753;55.724;37.612;2022-10-12T08:18:38;19.02;;;8.00;;
42094;SDS011;27753;55.724;37.612;2022-10-12T08:21:05;11.20;;;8.18;;
42094;SDS011;27753;55.724;37.612;2022-10-12T08:23:33;11.40;;;8.02;;
42094;SDS011;27753;55.724;37.612;2022-10-12T08:26:00;22.98;;;8.73;;
42094;SDS011;27753;55.724;37.612;2022-10-12T08:28:26;19.70;;;8.40;;
42094;SDS011;27753;55.724;37.612;2022-10-12T08:30:52;17.77;;;8.20;;
42094;SDS011;27753;55.724;37.612;2022-10-12T08:33:21;21.02;;;8.43;;
42094;SDS011;27753;55.724;37.612;2022-10-12T08:35:47;14.50;;;8.10;;
42094;SDS011;27753;55.724;37.612;2022-10-12T08:38:13;14.68;;;8.00;;
42094;SDS011;27753;55.724;37.612;2022-10-12T08:40:48;14.38;;;9.13;;
42094;SDS011;27753;55.724;37.612;2022-10-12T08:43:28;17.23;;;8.88;;
42094;SDS011;27753;55.724;37.612;2022-10-12T08:46:20;18.73;;;9.18;;
42094;SDS011;27753;55.724;37.612;2022-10-12T08:51:23;15.32;;;8.10;;
42094;SDS011;27753;55.724;37.612;2022-10-12T08:56:45;15.70;;;8.02;;
42094;SDS011;27753;55.724;37.612;2022-10-12T08:59:12;16.27;;;7.15;;
42094;SDS011;27753;55.724;37.612;2022-10-12T09:18:42;9.35;;;6.78;;
42094;SDS011;27753;55.724;37.612;2022-10-12T09:21:20;9.52;;;5.40;;
42094;SDS011;27753;55.724;37.612;2022-10-12T09:23:49;14.02;;;5.80;;
42094;SDS011;27753;55.724;37.612;2022-10-12T09:34:06;13.88;;;6.43;;
42094;SDS011;27753;55.724;37.612;2022-10-12T09:36:34;10.57;;;6.85;;
42094;SDS011;27753;55.724;37.612;2022-10-12T09:39:06;14.50;;;7.28;;
42094;SDS011;27753;55.724;37.612;2022-10-12T09:41:46;10.30;;;7.53;;
42094;SDS011;27753;55.724;37.612;2022-10-12T09:47:04;11.52;;;6.68;;
42094;SDS011;27753;55.724;37.612;2022-10-12T09:49:56;13.38;;;6.32;;
42094;SDS011;27753;55.724;37.612;2022-10-12T09:55:00;15.57;;;8.00;;
42094;SDS011;27753;55.724;37.612;2022-10-12T09:57:35;13.32;;;7.53;;
42094;SDS011;27753;55.724;37.612;2022-10-12T10:00:21;13.85;;;7.15;;
42094;SDS011;27753;55.724;37.612;2022-10-12T10:02:55;12.68;;;6.82;;
42094;SDS011;27753;55.724;37.612;2022-10-12T10:05:26;13.27;;;7.78;;
42094;SDS011;27753;55.724;37.612;2022-10-12T10:10:46;12.25;;;7.88;;
42094;SDS011;27753;55.724;37.612;2022-10-12T10:13:13;14.35;;;8.43;;
42094;SDS011;27753;55.724;37.612;2022-10-12T10:15:39;12.05;;;7.47;;
42094;SDS011;27753;55.724;37.612;2022-10-12T10:21:02;10.77;;;6.78;;
42094;SDS011;27753;55.724;37.612;2022-10-12T10:23:31;12.55;;;7.13;;
42094;SDS011;27753;55.724;37.612;2022-10-12T10:26:08;14.82;;;7.25;;
42094;SDS011;27753;55.724;37.612;2022-10-12T10:28:41;12.63;;;7.28;;
42094;SDS011;27753;55.724;37.612;2022-10-12T10:33:48;11.35;;;6.45;;
42094;SDS011;27753;55.724;37.612;2022-10-12T10:36:48;13.02;;;7.32;;
42094;SDS011;27753;55.724;37.612;2022-10-12T10:41:49;13.35;;;6.85;;
42094;SDS011;27753;55.724;37.612;2022-10-12T10:44:25;10.27;;;6.50;;
42094;SDS011;27753;55.724;37.612;2022-10-12T10:47:16;10.10;;;6.75;;
42094;SDS011;27753;55.724;37.612;2022-10-12T10:49:43;10.65;;;6.03;;
42094;SDS011;27753;55.724;37.612;2022-10-12T10:52:31;10.73;;;6.20;;
42094;SDS011;27753;55.724;37.612;2022-10-12T10:55:21;11.10;;;6.10;;
42094;SDS011;27753;55.724;37.612;2022-10-12T11:00:33;11.38;;;5.60;;
42094;SDS011;27753;55.724;37.612;2022-10-12T11:03:10;12.00;;;6.32;;
42094;SDS011;27753;55.724;37.612;2022-10-12T11:05:53;13.48;;;6.32;;
42094;SDS011;27753;55.724;37.612;2022-10-12T11:08:28;9.52;;;6.40;;
42094;SDS011;27753;55.724;37.612;2022-10-12T11:11:00;10.38;;;6.28;;
42094;SDS011;27753;55.724;37.612;2022-10-12T11:13:33;11.38;;;5.80;;
42094;SDS011;27753;55.724;37.612;2022-10-12T11:16:20;13.57;;;6.70;;
42094;SDS011;27753;55.724;37.612;2022-10-12T11:19:04;13.55;;;6.70;;
42094;SDS011;27753;55.724;37.612;2022-10-12T11:21:53;10.82;;;6.47;;
42094;SDS011;27753;55.724;37.612;2022-10-12T11:24:46;18.95;;;8.07;;
42094;SDS011;27753;55.724;37.612;2022-10-12T11:27:16;11.13;;;7.45;;
42094;SDS011;27753;55.724;37.612;2022-10-12T11:29:46;12.93;;;6.72;;
42094;SDS011;27753;55.724;37.612;2022-10-12T11:34:52;17.83;;;8.48;;
42094;SDS011;27753;55.724;37.612;2022-10-12T11:37:21;8.68;;;6.20;;
42094;SDS011;27753;55.724;37.612;2022-10-12T11:40:08;8.82;;;6.03;;
42094;SDS011;27753;55.724;37.612;2022-10-12T11:42:42;8.93;;;5.82;;
42094;SDS011;27753;55.724;37.612;2022-10-12T11:48:13;10.30;;;5.22;;
42094;SDS011;27753;55.724;37.612;2022-10-12T11:50:49;7.78;;;5.32;;
42094;SDS011;27753;55.724;37.612;2022-10-12T11:53:24;7.90;;;5.55;;
42094;SDS011;27753;55.724;37.612;2022-10-12T11:58:44;10.52;;;5.03;;
42094;SDS011;27753;55.724;37.612;2022-10-12T12:01:19;13.73;;;6.00;;
42094;SDS011;27753;55.724;37.612;2022-10-12T12:18:20;11.18;;;6.45;;
42094;SDS011;27753;55.724;37.612;2022-10-12T12:23:34;9.80;;;5.35;;
42094;SDS011;27753;55.724;37.612;2022-10-12T12:26:16;12.98;;;5.80;;
42094;SDS011;27753;55.724;37.612;2022-10-12T12:28:44;12.40;;;6.30;;
42094;SDS011;27753;55.724;37.612;2022-10-12T12:31:16;13.20;;;5.32;;
42094;SDS011;27753;55.724;37.612;2022-10-12T12:36:44;12.35;;;5.95;;
42094;SDS011;27753;55.724;37.612;2022-10-12T12:39:22;9.50;;;5.35;;
42094;SDS011;27753;55.724;37.612;2022-10-12T12:42:00;11.88;;;6.50;;
42094;SDS011;27753;55.724;37.612;2022-10-12T12:44:37;11.93;;;5.60;;
42094;SDS011;27753;55.724;37.612;2022-10-12T12:49:45;11.95;;;5.60;;
42094;SDS011;27753;55.724;37.612;2022-10-12T13:09:40;9.90;;;4.72;;
42094;SDS011;27753;55.724;37.612;2022-10-12T13:21:00;11.77;;;4.80;;
42094;SDS011;27753;55.724;37.612;2022-10-12T13:23:30;9.52;;;5.68;;
42094;SDS011;27753;55.724;37.612;2022-10-12T13:26:00;12.73;;;5.60;;
42094;SDS011;27753;55.724;37.612;2022-10-12T13:28:31;8.68;;;4.93;;
42094;SDS011;27753;55.724;37.612;2022-10-12T13:36:56;10.18;;;5.63;;
42094;SDS011;27753;55.724;37.612;2022-10-12T13:39:28;7.63;;;5.50;;
42094;SDS011;27753;55.724;37.612;2022-10-12T13:42:01;8.65;;;5.35;;
42094;SDS011;27753;55.724;37.612;2022-10-12T13:44:32;9.18;;;6.00;;
42094;SDS011;27753;55.724;37.612;2022-10-12T13:47:00;11.65;;;5.80;;
42094;SDS011;27753;55.724;37.612;2022-10-12T13:49:28;8.98;;;6.32;;
42094;SDS011;27753;55.724;37.612;2022-10-12T13:51:59;8.55;;;6.93;;
42094;SDS011;27753;55.724;37.612;2022-10-12T13:54:38;10.70;;;6.25;;
42094;SDS011;27753;55.724;37.612;2022-10-12T14:02:38;11.02;;;7.15;;
42094;SDS011;27753;55.724;37.612;2022-10-12T14:05:14;10.68;;;6.70;;
42094;SDS011;27753;55.724;37.612;2022-10-12T14:07:44;15.70;;;8.13;;
42094;SDS011;27753;55.724;37.612;2022-10-12T14:10:18;10.00;;;7.25;;
42094;SDS011;27753;55.724;37.612;2022-10-12T14:12:48;11.13;;;7.07;;
42094;SDS011;27753;55.724;37.612;2022-10-12T14:15:16;11.60;;;7.30;;
42094;SDS011;27753;55.724;37.612;2022-10-12T14:17:44;12.68;;;7.40;;
42094;SDS011;27753;55.724;37.612;2022-10-12T14:20:14;12.13;;;7.72;;
42094;SDS011;27753;55.724;37.612;2022-10-12T14:22:51;13.60;;;8.20;;
42094;SDS011;27753;55.724;37.612;2022-10-12T14:25:22;10.27;;;7.43;;
42094;SDS011;27753;55.724;37.612;2022-10-12T14:27:53;11.95;;;6.88;;
42094;SDS011;27753;55.724;37.612;2022-10-12T14:30:27;14.40;;;7.65;;
42094;SDS011;27753;55.724;37.612;2022-10-12T14:32:54;15.10;;;8.80;;
42094;SDS011;27753;55.724;37.612;2022-10-12T14:35:37;12.63;;;7.10;;
42094;SDS011;27753;55.724;37.612;2022-10-12T14:44:05;12.73;;;7.93;;
42094;SDS011;27753;55.724;37.612;2022-10-12T14:46:38;12.25;;;8.52;;
42094;SDS011;27753;55.724;37.612;2022-10-12T14:57:22;13.00;;;7.70;;
42094;SDS011;27753;55.724;37.612;2022-10-12T14:59:49;11.25;;;6.72;;
42094;SDS011;27753;55.724;37.612;2022-10-12T15:04:43;9.35;;;7.32;;
42094;SDS011;27753;55.724;37.612;2022-10-12T15:07:22;13.02;;;8.07;;
42094;SDS011;27753;55.724;37.612;2022-10-12T15:09:56;13.32;;;7.38;;
42094;SDS011;27753;55.724;37.612;2022-10-12T15:12:23;16.63;;;7.88;;
42094;SDS011;27753;55.724;37.612;2022-10-12T15:14:50;13.37;;;8.20;;
42094;SDS011;27753;55.724;37.612;2022-10-12T15:17:18;10.73;;;8.02;;
42094;SDS011;27753;55.724;37.612;2022-10-12T15:19:45;13.02;;;7.95;;
42094;SDS011;27753;55.724;37.612;2022-10-12T15:24:45;11.00;;;7.82;;
42094;SDS011;27753;55.724;37.612;2022-10-12T15:27:11;14.50;;;7.50;;
42094;SDS011;27753;55.724;37.612;2022-10-12T15:29:37;14.45;;;7.68;;
42094;SDS011;27753;55.724;37.612;2022-10-12T15:32:03;12.10;;;7.65;;
42094;SDS011;27753;55.724;37.612;2022-10-12T15:34:31;16.33;;;8.48;;
42094;SDS011;27753;55.724;37.612;2022-10-12T15:36:56;10.05;;;7.45;;
42094;SDS011;27753;55.724;37.612;2022-10-12T15:39:22;13.95;;;8.13;;
42094;SDS011;27753;55.724;37.612;2022-10-12T15:41:49;12.50;;;7.93;;
42094;SDS011;27753;55.724;37.612;2022-10-12T15:44:15;22.75;;;9.00;;
42094;SDS011;27753;55.724;37.612;2022-10-12T15:46:41;12.75;;;8.02;;
42094;SDS011;27753;55.724;37.612;2022-10-12T15:49:08;11.98;;;8.15;;
42094;SDS011;27753;55.724;37.612;2022-10-12T15:51:37;13.63;;;8.55;;
42094;SDS011;27753;55.724;37.612;2022-10-12T15:54:05;14.80;;;9.18;;
42094;SDS011;27753;55.724;37.612;2022-10-12T15:56:31;15.73;;;9.07;;
42094;SDS011;27753;55.724;37.612;2022-10-12T15:58:57;18.67;;;9.25;;
42094;SDS011;27753;55.724;37.612;2022-10-12T16:01:23;19.40;;;9.50;;
42094;SDS011;27753;55.724;37.612;2022-10-12T16:03:49;17.35;;;9.13;;
42094;SDS011;27753;55.724;37.612;2022-10-12T16:06:15;14.90;;;9.10;;
42094;SDS011;27753;55.724;37.612;2022-10-12T16:08:41;24.00;;;10.10;;
42094;SDS011;27753;55.724;37.612;2022-10-12T16:11:09;18.85;;;10.40;;
42094;SDS011;27753;55.724;37.612;2022-10-12T16:13:37;15.93;;;10.75;;
42094;SDS011;27753;55.724;37.612;2022-10-12T16:16:04;19.00;;;9.90;;
42094;SDS011;27753;55.724;37.612;2022-10-12T16:18:30;24.33;;;10.13;;
42094;SDS011;27753;55.724;37.612;2022-10-12T16:20:56;17.23;;;9.40;;
42094;SDS011;27753;55.724;37.612;2022-10-12T16:23:26;20.75;;;11.40;;
42094;SDS011;27753;55.724;37.612;2022-10-12T16:25:54;20.52;;;10.57;;
42094;SDS011;27753;55.724;37.612;2022-10-12T16:28:21;20.30;;;10.60;;
42094;SDS011;27753;55.724;37.612;2022-10-12T16:30:48;24.70;;;12.00;;
42094;SDS011;27753;55.724;37.612;2022-10-12T16:33:15;26.73;;;12.57;;
42094;SDS011;27753;55.724;37.612;2022-10-12T16:35:50;16.98;;;11.25;;
42094;SDS011;27753;55.724;37.612;2022-10-12T16:38:16;18.08;;;11.27;;
42094;SDS011;27753;55.724;37.612;2022-10-12T16:43:10;20.35;;;12.77;;
42094;SDS011;27753;55.724;37.612;2022-10-12T16:45:36;23.50;;;10.98;;
42094;SDS011;27753;55.724;37.612;2022-10-12T16:48:02;20.33;;;10.25;;
42094;SDS011;27753;55.724;37.612;2022-10-12T16:50:28;21.52;;;11.52;;
42094;SDS011;27753;55.724;37.612;2022-10-12T16:52:54;18.88;;;10.88;;
42094;SDS011;27753;55.724;37.612;2022-10-12T16:55:20;18.40;;;10.98;;
42094;SDS011;27753;55.724;37.612;2022-10-12T16:57:46;20.52;;;10.65;;
42094;SDS011;27753;55.724;37.612;2022-10-12T17:00:13;23.05;;;11.02;;
42094;SDS011;27753;55.724;37.612;2022-10-12T17:02:41;18.85;;;10.77;;
42094;SDS011;27753;55.724;37.612;2022-10-12T17:05:07;19.73;;;11.57;;
42094;SDS011;27753;55.724;37.612;2022-10-12T17:07:33;21.70;;;11.77;;
42094;SDS011;27753;55.724;37.612;2022-10-12T17:09:59;17.80;;;9.52;;
42094;SDS011;27753;55.724;37.612;2022-10-12T17:12:25;22.63;;;10.48;;
42094;SDS011;27753;55.724;37.612;2022-10-12T17:14:52;22.60;;;12.33;;